Weather at Richland Airpark

Public forecast

Using degrees Fahrenheit for public forecast. Weather courtesy of forecast.io.

Closest aviation weather report (METAR) to Richland Airpark

Closest report is Oswego County Airport, 20.2 nm (37.4 km) SW. Retrieved 2021/01/16 20:24 UTC (26 minutes ago):

KFZY 162024Z AUTO 27013KT 6SM HZ BKN015 BKN031 OVC038 02/M01 A2939 RMK AO2 T00221006

Closest aviation forecast (TAF) to Richland Airpark

Closest forecast is Watertown International Airport, 25.5 nm (47.3 km) N. Retrieved 2021/01/16 18:39 UTC (2 hours ago):

TAF KART 161737Z 1618/1718 24003KT P6SM OVC010 FM162100 25004KT 6SM BR VCSH OVC007 FM170000 26014G23KT 2SM -SN BR OVC005 FM171400 27015G23KT 6SM BR VCSH OVC012